Time;durP1;ratioP1;P1;durP2;ratioP2;P2;SDS_P1;SDS_P2;PMS_P1;PMS_P2;Temp;Humidity;BMP_temperature;BMP_pressure;BME280_temperature;BME280_humidity;BME280_pressure;Samples;Min_cycle;Max_cycle;Signal;HPM_P1;HPM_P2
2022/04/17 00:00:48;;;;;;;0.43;0.43;;;;;;;9.63;100.00;101609.94;4975717;28;20041;-79
2022/04/17 00:03:14;;;;;;;0.30;0.30;;;;;;;9.58;100.00;101601.47;4972204;28;20092;-79
2022/04/17 00:05:39;;;;;;;0.30;0.30;;;;;;;9.64;100.00;101605.41;4995310;28;20042;-79
2022/04/17 00:08:05;;;;;;;0.30;0.30;;;;;;;9.61;100.00;101592.28;5011193;28;20057;-79
2022/04/17 00:10:31;;;;;;;0.30;0.30;;;;;;;9.63;100.00;101593.81;4994755;28;20034;-79
2022/04/17 00:12:57;;;;;;;0.30;0.30;;;;;;;9.63;100.00;101590.25;4998333;28;20590;-79
2022/04/17 00:15:23;;;;;;;0.30;0.30;;;;;;;9.63;100.00;101587.56;4962644;28;20037;-79
2022/04/17 00:17:49;;;;;;;0.30;0.30;;;;;;;9.63;100.00;101585.75;4996008;28;20034;-79
2022/04/17 00:20:16;;;;;;;0.30;0.30;;;;;;;9.62;100.00;101570.63;4972858;28;20042;-78
2022/04/17 00:22:44;;;;;;;0.38;0.38;;;;;;;9.61;100.00;101568.94;4982008;28;20550;-79
2022/04/17 00:25:11;;;;;;;0.40;0.40;;;;;;;9.64;100.00;101582.06;4999825;28;20115;-79
2022/04/17 00:27:39;;;;;;;0.40;0.40;;;;;;;9.60;100.00;101577.97;4991816;28;20034;-78
2022/04/17 00:30:06;;;;;;;0.30;0.30;;;;;;;9.60;100.00;101572.59;4978453;28;20128;-79
2022/04/17 00:32:32;;;;;;;0.30;0.30;;;;;;;9.57;100.00;101572.06;4973801;28;20034;-79
2022/04/17 00:34:58;;;;;;;0.40;0.40;;;;;;;9.60;100.00;101574.44;5016790;28;20494;-79
2022/04/17 00:37:24;;;;;;;0.40;0.40;;;;;;;9.64;100.00;101568.66;4987249;28;20038;-79
2022/04/17 00:39:51;;;;;;;0.30;0.30;;;;;;;9.60;100.00;101559.19;4967786;28;20033;-79
2022/04/17 00:42:17;;;;;;;0.40;0.40;;;;;;;9.67;100.00;101554.06;4996791;28;20072;-78
2022/04/17 00:44:42;;;;;;;0.30;0.30;;;;;;;9.67;100.00;101557.59;4995148;28;20034;-79
2022/04/17 00:47:09;;;;;;;0.30;0.30;;;;;;;9.67;100.00;101562.13;4977960;28;20033;-79
2022/04/17 00:49:35;;;;;;;0.30;0.30;;;;;;;9.67;100.00;101562.97;5009698;28;20030;-79
2022/04/17 00:52:01;;;;;;;0.30;0.30;;;;;;;9.71;100.00;101554.59;5007273;28;20113;-79
2022/04/17 00:54:27;;;;;;;0.30;0.30;;;;;;;9.73;100.00;101549.94;4997545;28;20050;-79
2022/04/17 00:56:53;;;;;;;0.32;0.32;;;;;;;9.69;100.00;101552.94;5008603;28;20071;-79
2022/04/17 00:59:20;;;;;;;0.30;0.30;;;;;;;9.75;100.00;101556.00;4983939;28;20034;-78
2022/04/17 01:01:46;;;;;;;0.30;0.30;;;;;;;9.75;100.00;101547.94;4990187;28;20536;-79
2022/04/17 01:04:12;;;;;;;0.38;0.38;;;;;;;9.72;100.00;101543.72;4975535;28;20117;-79
2022/04/17 01:06:40;;;;;;;0.30;0.30;;;;;;;9.75;100.00;101540.72;4995419;28;20030;-79
2022/04/17 01:09:06;;;;;;;0.40;0.40;;;;;;;9.76;100.00;101544.25;4993566;28;20088;-79
2022/04/17 01:11:32;;;;;;;0.32;0.32;;;;;;;9.75;100.00;101535.34;4990707;28;20104;-79
2022/04/17 01:13:58;;;;;;;0.30;0.30;;;;;;;9.77;100.00;101536.06;4968326;28;20140;-79
2022/04/17 01:16:25;;;;;;;0.30;0.30;;;;;;;9.79;100.00;101533.22;5009516;28;20121;-79
2022/04/17 01:19:03;;;;;;;0.38;0.38;;;;;;;9.79;100.00;101525.16;4960456;28;20042;-79
2022/04/17 01:21:33;;;;;;;0.30;0.30;;;;;;;9.76;100.00;101517.41;4977282;28;20042;-79
2022/04/17 01:26:58;;;;;;;0.30;0.30;;;;;;;9.72;100.00;101508.81;4984483;28;20139;-79
2022/04/17 01:29:35;;;;;;;0.30;0.30;;;;;;;9.71;100.00;101511.63;4976666;28;20124;-79
2022/04/17 01:32:03;;;;;;;0.30;0.30;;;;;;;9.71;100.00;101507.09;5008353;28;20534;-79
2022/04/17 01:34:29;;;;;;;0.30;0.30;;;;;;;9.72;100.00;101502.59;4980087;28;20038;-79
2022/04/17 01:36:55;;;;;;;0.30;0.30;;;;;;;9.67;100.00;101493.16;4997180;28;20034;-79
2022/04/17 01:39:21;;;;;;;0.40;0.40;;;;;;;9.64;100.00;101479.19;5000370;28;20042;-79
2022/04/17 01:41:48;;;;;;;0.30;0.30;;;;;;;9.69;100.00;101480.41;4995794;28;20045;-79
2022/04/17 01:44:16;;;;;;;0.30;0.30;;;;;;;9.70;100.00;101481.25;5007596;28;20041;-79
2022/04/17 01:46:42;;;;;;;0.30;0.30;;;;;;;9.66;100.00;101479.88;5010542;28;20037;-78
2022/04/17 01:49:08;;;;;;;0.30;0.30;;;;;;;9.66;100.00;101475.34;5011776;28;20089;-78
2022/04/17 01:51:38;;;;;;;0.30;0.30;;;;;;;9.69;100.00;101468.84;5022128;28;20042;-78
2022/04/17 01:54:15;;;;;;;0.40;0.40;;;;;;;9.68;100.00;101465.31;4977178;28;20066;-79
2022/04/17 01:56:42;;;;;;;0.40;0.40;;;;;;;9.69;100.00;101469.69;5003753;28;20088;-78
2022/04/17 01:59:08;;;;;;;0.40;0.40;;;;;;;9.69;100.00;101480.41;4995629;28;20545;-79
2022/04/17 02:01:35;;;;;;;0.35;0.35;;;;;;;9.71;100.00;101487.47;4998030;28;20034;-79
2022/04/17 02:04:02;;;;;;;0.30;0.30;;;;;;;9.72;100.00;101478.44;5001396;28;20038;-80
2022/04/17 02:06:28;;;;;;;0.30;0.30;;;;;;;9.71;100.00;101468.66;4976917;28;20065;-79
2022/04/17 02:08:55;;;;;;;0.30;0.30;;;;;;;9.65;100.00;101460.22;5004055;28;20068;-79
2022/04/17 02:11:22;;;;;;;0.40;0.40;;;;;;;9.71;100.00;101460.63;4970262;28;20034;-80
2022/04/17 02:13:50;;;;;;;0.40;0.40;;;;;;;9.66;100.00;101459.25;4995596;28;20030;-80
2022/04/17 02:16:19;;;;;;;0.35;0.35;;;;;;;9.69;100.00;101461.63;4989597;28;20022;-79
2022/04/17 02:18:48;;;;;;;0.30;0.30;;;;;;;9.68;100.00;101462.63;4976736;28;20034;-79
2022/04/17 02:21:16;;;;;;;0.40;0.40;;;;;;;9.65;100.00;101449.47;4989289;28;20037;-80
2022/04/17 02:23:42;;;;;;;0.35;0.35;;;;;;;9.53;100.00;101421.19;4992775;28;20096;-80
2022/04/17 02:26:09;;;;;;;0.30;0.30;;;;;;;9.71;100.00;101444.50;4989482;28;20045;-80
2022/04/17 02:28:39;;;;;;;0.30;0.30;;;;;;;9.72;100.00;101448.91;4976405;28;20040;-79
2022/04/17 02:31:06;;;;;;;0.40;0.40;;;;;;;9.72;100.00;101446.22;4992442;28;20116;-79
2022/04/17 02:33:32;;;;;;;0.30;0.30;;;;;;;9.76;100.00;101445.72;4988484;28;20096;-80
2022/04/17 02:35:58;;;;;;;0.40;0.40;;;;;;;9.67;100.00;101427.88;5015135;28;20037;-80
2022/04/17 02:38:24;;;;;;;0.32;0.32;;;;;;;9.68;100.00;101416.09;4992929;28;20100;-80
2022/04/17 02:40:50;;;;;;;0.30;0.30;;;;;;;9.73;100.00;101423.72;4995960;28;20022;-79
2022/04/17 02:43:16;;;;;;;0.30;0.30;;;;;;;9.77;100.00;101423.25;4983185;28;20057;-79
2022/04/17 02:45:43;;;;;;;0.30;0.30;;;;;;;9.79;100.00;101423.09;4999329;28;20070;-79
2022/04/17 02:48:08;;;;;;;0.30;0.30;;;;;;;9.74;100.00;101422.69;5005380;28;20399;-79
2022/04/17 02:50:34;;;;;;;0.40;0.40;;;;;;;9.77;100.00;101430.47;5013819;28;20033;-80
2022/04/17 02:52:59;;;;;;;0.30;0.30;;;;;;;9.76;100.00;101420.72;5006863;28;20037;-79
2022/04/17 02:55:25;;;;;;;0.40;0.40;;;;;;;9.76;100.00;101416.19;5009925;28;20037;-79
2022/04/17 02:57:51;;;;;;;0.40;0.40;;;;;;;9.73;100.00;101410.28;4980335;28;20057;-79
2022/04/17 03:00:18;;;;;;;0.30;0.30;;;;;;;9.76;100.00;101404.59;4993851;28;20068;-80
2022/04/17 03:05:37;;;;;;;0.40;0.40;;;;;;;9.73;100.00;101411.13;4996114;28;20053;-80
2022/04/17 03:08:04;;;;;;;0.40;0.40;;;;;;;9.74;100.00;101409.28;5005024;28;20471;-79
2022/04/17 03:10:30;;;;;;;0.40;0.40;;;;;;;9.69;100.00;101396.34;4978955;28;20030;-79
2022/04/17 03:12:56;;;;;;;0.40;0.40;;;;;;;9.73;100.00;101404.91;4991614;28;20034;-79
2022/04/17 03:15:22;;;;;;;0.40;0.40;;;;;;;9.68;100.00;101395.50;4998163;28;20130;-79
2022/04/17 03:17:48;;;;;;;0.30;0.30;;;;;;;9.72;100.00;101396.03;5007813;28;20133;-80
2022/04/17 03:20:14;;;;;;;0.40;0.40;;;;;;;9.71;100.00;101393.47;4981593;28;20073;-81
2022/04/17 03:22:41;;;;;;;0.40;0.40;;;;;;;9.70;100.00;101384.59;4995492;28;20044;-80
2022/04/17 03:25:07;;;;;;;0.40;0.40;;;;;;;9.68;100.00;101389.25;4981391;28;20041;-79
2022/04/17 03:27:32;;;;;;;0.30;0.30;;;;;;;9.64;100.00;101380.69;4979457;28;20034;-79
2022/04/17 03:29:58;;;;;;;0.40;0.40;;;;;;;9.60;100.00;101373.06;5012769;28;20040;-80
2022/04/17 03:32:24;;;;;;;0.30;0.30;;;;;;;9.66;100.00;101377.84;5009669;28;20037;-79
2022/04/17 03:34:49;;;;;;;0.40;0.40;;;;;;;9.63;100.00;101373.63;4985233;28;20049;-79
2022/04/17 03:37:15;;;;;;;0.30;0.30;;;;;;;9.59;100.00;101361.50;4993660;28;20026;-79
2022/04/17 03:39:42;;;;;;;0.30;0.30;;;;;;;9.66;100.00;101365.25;5007062;28;20053;-79
2022/04/17 03:42:08;;;;;;;0.40;0.40;;;;;;;9.66;100.00;101365.25;4984864;28;20498;-78
2022/04/17 03:44:33;;;;;;;0.40;0.40;;;;;;;9.60;100.00;101355.13;4967735;28;20068;-79
2022/04/17 03:47:00;;;;;;;0.40;0.40;;;;;;;9.62;100.00;101355.81;5010647;28;20036;-78
2022/04/17 03:49:25;;;;;;;0.30;0.30;;;;;;;9.64;100.00;101358.38;5008850;28;20081;-79
2022/04/17 03:51:51;;;;;;;0.40;0.40;;;;;;;9.62;100.00;101355.81;4997715;28;20034;-79
2022/04/17 03:54:19;;;;;;;0.38;0.38;;;;;;;9.58;100.00;101349.09;4976749;28;20044;-79
2022/04/17 03:56:46;;;;;;;0.30;0.30;;;;;;;9.56;100.00;101355.59;5003077;28;20053;-80
2022/04/17 03:59:12;;;;;;;0.40;0.40;;;;;;;9.56;100.00;101350.25;5021978;28;20122;-79
2022/04/17 04:01:38;;;;;;;0.30;0.30;;;;;;;9.60;100.00;101357.81;5009504;28;20116;-80
2022/04/17 04:04:05;;;;;;;0.30;0.30;;;;;;;9.59;100.00;101356.13;5010877;28;20034;-79
2022/04/17 04:06:30;;;;;;;0.40;0.40;;;;;;;9.58;100.00;101342.84;4990984;28;20076;-80
2022/04/17 04:08:56;;;;;;;0.40;0.40;;;;;;;9.60;100.00;101357.81;4990185;28;20659;-81
2022/04/17 04:11:22;;;;;;;0.30;0.30;;;;;;;9.59;100.00;101347.25;4990818;28;20052;-79
2022/04/17 04:13:47;;;;;;;0.30;0.30;;;;;;;9.57;100.00;101342.00;4985168;28;20037;-78
2022/04/17 04:16:14;;;;;;;0.40;0.40;;;;;;;9.53;100.00;101334.44;4981843;28;20125;-79
2022/04/17 04:18:40;;;;;;;0.40;0.40;;;;;;;9.47;100.00;101330.50;5016365;28;20044;-79
2022/04/17 04:21:05;;;;;;;0.30;0.30;;;;;;;9.51;100.00;101334.59;4973134;28;20026;-78
2022/04/17 04:23:33;;;;;;;0.40;0.40;;;;;;;9.45;100.00;101329.84;4990698;28;20040;-79
2022/04/17 04:25:59;;;;;;;0.30;0.30;;;;;;;9.45;100.00;101328.00;4990896;28;20049;-78
2022/04/17 04:28:33;;;;;;;0.40;0.40;;;;;;;9.47;100.00;101322.47;4958846;28;20628;-78
2022/04/17 04:31:09;;;;;;;0.40;0.40;;;;;;;9.48;100.00;101316.13;4991553;28;20030;-80
2022/04/17 04:33:36;;;;;;;0.40;0.40;;;;;;;9.48;100.00;101315.28;4966182;28;20132;-79
2022/04/17 04:36:04;;;;;;;0.30;0.30;;;;;;;9.38;100.00;101304.63;4996871;28;20084;-79
2022/04/17 04:38:30;;;;;;;0.30;0.30;;;;;;;9.44;100.00;101299.44;4992922;28;20368;-79
2022/04/17 04:40:56;;;;;;;0.40;0.40;;;;;;;9.42;100.00;101293.41;4988963;28;20057;-80
2022/04/17 04:43:22;;;;;;;0.35;0.35;;;;;;;9.36;100.00;101277.91;4980030;28;20392;-79
2022/04/17 04:51:17;;;;;;;0.40;0.40;;;;;;;9.33;100.00;101291.66;4976480;28;20502;-79
2022/04/17 04:53:43;;;;;;;0.40;0.40;;;;;;;9.25;100.00;101281.69;4967206;28;20038;-79
2022/04/17 04:56:09;;;;;;;0.40;0.40;;;;;;;9.27;100.00;101283.38;4961251;28;20124;-79
2022/04/17 04:58:35;;;;;;;0.40;0.40;;;;;;;9.36;100.00;101295.88;4971591;28;20050;-80
2022/04/17 05:01:00;;;;;;;0.30;0.30;;;;;;;9.37;100.00;101290.34;4964811;28;20038;-79
2022/04/17 05:03:26;;;;;;;0.40;0.40;;;;;;;9.40;100.00;101297.25;4992164;28;20041;-78
2022/04/17 05:05:52;;;;;;;0.40;0.40;;;;;;;9.41;100.00;101289.03;4966236;28;20038;-79
2022/04/17 05:08:20;;;;;;;0.40;0.40;;;;;;;9.42;100.00;101285.38;4977043;28;20037;-79
2022/04/17 05:10:49;;;;;;;0.40;0.40;;;;;;;9.42;100.00;101279.13;5012849;28;20604;-79
2022/04/17 05:13:15;;;;;;;0.40;0.40;;;;;;;9.42;100.00;101280.00;5002172;28;20030;-79
2022/04/17 05:15:41;;;;;;;0.40;0.40;;;;;;;9.40;100.00;101270.41;4971922;28;20387;-80
2022/04/17 05:18:07;;;;;;;0.30;0.30;;;;;;;9.37;100.00;101266.19;4974811;28;20040;-79
2022/04/17 05:20:33;;;;;;;0.40;0.40;;;;;;;9.34;100.00;101265.66;4995762;28;20108;-79
2022/04/17 05:23:18;;;;;;;0.30;0.30;;;;;;;9.34;100.00;101255.78;4988376;28;20062;-79
2022/04/17 05:25:50;;;;;;;0.40;0.40;;;;;;;9.30;100.00;101243.66;4983341;28;20030;-80
2022/04/17 05:28:16;;;;;;;0.30;0.30;;;;;;;9.33;100.00;101248.72;4983492;28;20057;-79
2022/04/17 05:30:42;;;;;;;0.40;0.40;;;;;;;9.36;100.00;101251.06;4992655;28;20398;-79
2022/04/17 05:33:07;;;;;;;0.40;0.40;;;;;;;9.36;100.00;101245.72;5007715;28;20085;-79
2022/04/17 05:35:34;;;;;;;0.32;0.32;;;;;;;9.32;100.00;101230.94;4991414;28;20025;-79
2022/04/17 05:37:59;;;;;;;0.40;0.40;;;;;;;9.39;100.00;101236.50;5010043;28;20033;-79
2022/04/17 05:40:25;;;;;;;0.40;0.40;;;;;;;9.36;100.00;101229.59;4993125;28;20038;-79
2022/04/17 05:42:51;;;;;;;0.40;0.40;;;;;;;9.39;100.00;101226.63;4993005;28;20455;-79
2022/04/17 05:45:16;;;;;;;0.40;0.40;;;;;;;9.37;100.00;101234.00;5015865;28;20480;-79
2022/04/17 05:47:42;;;;;;;0.30;0.30;;;;;;;9.40;100.00;101227.47;4996316;28;20160;-79
2022/04/17 05:50:08;;;;;;;0.35;0.35;;;;;;;9.38;100.00;101221.41;5003052;28;20034;-80
2022/04/17 05:52:34;;;;;;;0.30;0.30;;;;;;;9.44;100.00;101228.81;4992990;28;20119;-79
2022/04/17 05:54:59;;;;;;;0.40;0.40;;;;;;;9.43;100.00;101221.78;5001332;28;20037;-80
2022/04/17 05:57:25;;;;;;;0.30;0.30;;;;;;;9.46;100.00;101226.84;4968129;28;20479;-79
2022/04/17 05:59:51;;;;;;;0.40;0.40;;;;;;;9.50;100.00;101224.66;4978353;28;20030;-79
2022/04/17 06:02:17;;;;;;;0.30;0.30;;;;;;;9.50;100.00;101216.63;4965030;28;20459;-79
2022/04/17 06:04:42;;;;;;;0.30;0.30;;;;;;;9.46;100.00;101208.88;4997106;28;20041;-79
2022/04/17 06:07:09;;;;;;;0.40;0.40;;;;;;;9.44;100.00;101193.94;4965226;28;20034;-79
2022/04/17 06:09:35;;;;;;;0.40;0.40;;;;;;;9.44;100.00;101188.56;5000294;28;20038;-79
2022/04/17 06:12:00;;;;;;;0.40;0.40;;;;;;;9.46;100.00;101200.00;4970805;28;22985;-79
2022/04/17 06:14:26;;;;;;;0.40;0.40;;;;;;;9.49;100.00;101194.31;4967231;28;20055;-81
2022/04/17 06:16:52;;;;;;;0.40;0.40;;;;;;;9.56;100.00;101192.69;4981933;28;20037;-79
2022/04/17 06:19:17;;;;;;;0.40;0.40;;;;;;;9.60;100.00;101193.19;4982087;28;20064;-80
2022/04/17 06:21:43;;;;;;;0.40;0.40;;;;;;;9.59;100.00;101183.47;4971769;28;20030;-79
2022/04/17 06:24:09;;;;;;;0.40;0.40;;;;;;;9.66;100.00;101190.72;4968986;28;20049;-79
2022/04/17 06:26:35;;;;;;;0.40;0.40;;;;;;;9.66;100.00;101193.41;4984866;28;20482;-80
2022/04/17 06:29:03;;;;;;;0.40;0.40;;;;;;;9.71;100.00;101194.75;4983760;28;20454;-79
2022/04/17 06:31:32;;;;;;;0.40;0.40;;;;;;;9.71;100.00;101194.75;4994149;28;20037;-80
2022/04/17 06:33:57;;;;;;;0.40;0.40;;;;;;;9.69;100.00;101195.78;4991199;28;20033;-80
2022/04/17 06:36:23;;;;;;;0.40;0.40;;;;;;;9.75;100.00;101198.81;5002658;28;20056;-79
2022/04/17 06:38:49;;;;;;;0.30;0.30;;;;;;;9.80;100.00;101196.50;4969573;28;20037;-79
2022/04/17 06:41:14;;;;;;;0.38;0.38;;;;;;;9.78;100.00;101185.91;4968986;28;20447;-78
2022/04/17 06:43:40;;;;;;;0.40;0.40;;;;;;;9.81;100.00;101188.28;4968105;28;20499;-80
2022/04/17 06:46:06;;;;;;;0.43;0.43;;;;;;;9.85;100.00;101192.34;4971222;28;20521;-79
2022/04/17 06:48:31;;;;;;;0.40;0.40;;;;;;;9.84;100.00;101185.28;4953450;28;20049;-79
2022/04/17 06:50:57;;;;;;;0.40;0.40;;;;;;;9.80;100.00;101180.41;4969427;28;20092;-79
2022/04/17 06:53:23;;;;;;;0.40;0.40;;;;;;;9.80;100.00;101181.22;4985394;28;20034;-79
2022/04/17 06:55:49;;;;;;;0.40;0.40;;;;;;;9.79;100.00;101173.31;4970811;28;20124;-79
2022/04/17 06:58:18;;;;;;;0.40;0.40;;;;;;;9.78;100.00;101182.38;4969151;28;20034;-79
2022/04/17 07:00:45;;;;;;;0.40;0.40;;;;;;;9.72;100.00;101165.09;5003013;28;20121;-79
2022/04/17 07:03:10;;;;;;;0.40;0.40;;;;;;;9.78;100.00;101177.03;4983901;28;20368;-80
2022/04/17 07:05:36;;;;;;;0.40;0.40;;;;;;;9.80;100.00;101170.50;4985325;28;20057;-79
2022/04/17 07:08:04;;;;;;;0.40;0.40;;;;;;;9.83;100.00;101172.00;4996684;28;20037;-79
2022/04/17 07:10:31;;;;;;;0.40;0.40;;;;;;;9.80;100.00;101158.91;5010483;28;20026;-79
2022/04/17 07:12:57;;;;;;;0.40;0.40;;;;;;;9.81;100.00;101160.59;5004784;28;20048;-79
2022/04/17 07:15:26;;;;;;;0.40;0.40;;;;;;;9.79;100.00;101152.69;4992499;28;20305;-79
2022/04/17 07:17:53;;;;;;;0.40;0.40;;;;;;;9.82;100.00;101146.16;4997649;28;20030;-79
2022/04/17 07:20:19;;;;;;;0.40;0.40;;;;;;;9.81;100.00;101149.84;4990972;28;20140;-79
2022/04/17 07:22:50;;;;;;;0.40;0.40;;;;;;;9.84;100.00;101141.44;4992086;28;20042;-79
2022/04/17 07:25:16;;;;;;;0.40;0.40;;;;;;;9.85;100.00;101146.69;4985909;28;20040;-79
2022/04/17 07:27:47;;;;;;;0.50;0.50;;;;;;;9.89;100.00;101141.81;4984260;28;20042;-80
2022/04/17 07:30:29;;;;;;;0.40;0.40;;;;;;;9.87;100.00;101131.25;4960041;28;20128;-79
2022/04/17 07:32:55;;;;;;;0.40;0.40;;;;;;;10.03;100.00;101138.53;4974443;28;20044;-80
2022/04/17 07:35:22;;;;;;;0.50;0.50;;;;;;;10.09;100.00;101137.84;4991306;28;20434;-79
2022/04/17 07:38:08;;;;;;;0.40;0.40;;;;;;;10.19;100.00;101134.19;4988483;28;20101;-79
2022/04/17 07:40:35;;;;;;;0.40;0.40;;;;;;;10.27;100.00;101127.03;4985903;28;20038;-79
2022/04/17 07:43:03;;;;;;;0.40;0.40;;;;;;;10.37;100.00;101129.53;4981853;28;20487;-79
2022/04/17 07:45:32;;;;;;;0.40;0.40;;;;;;;10.36;100.00;101122.50;4964803;28;20038;-79
2022/04/17 07:47:58;;;;;;;0.40;0.40;;;;;;;10.40;100.00;101120.31;4981899;28;20029;-78
2022/04/17 07:50:26;;;;;;;0.40;0.40;;;;;;;10.33;100.00;101112.91;4978287;28;20026;-79
2022/04/17 07:52:53;;;;;;;0.40;0.40;;;;;;;10.32;100.00;101115.78;5006174;28;20376;-79
2022/04/17 07:55:20;;;;;;;0.40;0.40;;;;;;;10.26;100.00;101106.47;4995188;28;20030;-79
2022/04/17 08:00:32;;;;;;;0.40;0.40;;;;;;;10.31;100.00;101127.53;4998388;28;20026;-79
2022/04/17 08:03:10;;;;;;;0.40;0.40;;;;;;;10.33;100.00;101122.84;4975313;28;20048;-80
2022/04/17 08:05:39;;;;;;;0.50;0.50;;;;;;;10.33;100.00;101128.22;4983350;28;20069;-79
2022/04/17 08:08:06;;;;;;;0.40;0.40;;;;;;;10.31;100.00;101124.84;4972773;28;20037;-79
2022/04/17 08:10:33;;;;;;;0.30;0.30;;;;;;;10.29;100.00;101132.22;5006555;28;20042;-78
2022/04/17 08:12:58;;;;;;;0.40;0.40;;;;;;;10.25;100.00;101125.47;4965906;28;20041;-79
2022/04/17 08:15:24;;;;;;;0.40;0.40;;;;;;;10.21;100.00;101122.25;4958607;28;20052;-79
2022/04/17 08:17:50;;;;;;;0.40;0.40;;;;;;;10.17;100.00;101112.84;5004016;28;20034;-80
2022/04/17 08:20:15;;;;;;;0.40;0.40;;;;;;;10.24;100.00;101113.91;4972176;28;20030;-79
2022/04/17 08:22:41;;;;;;;0.40;0.40;;;;;;;10.25;100.00;101109.34;4974196;28;20073;-79
2022/04/17 08:25:07;;;;;;;0.40;0.40;;;;;;;10.20;100.00;101096.41;4966046;28;20076;-79
2022/04/17 08:27:32;;;;;;;0.40;0.40;;;;;;;10.19;100.00;101097.41;4970720;28;20029;-78
2022/04/17 08:29:59;;;;;;;0.40;0.40;;;;;;;10.28;100.00;101109.06;4986054;28;20026;-78
2022/04/17 08:32:24;;;;;;;0.40;0.40;;;;;;;10.31;100.00;101106.03;4999170;28;20057;-79
2022/04/17 08:34:50;;;;;;;0.40;0.40;;;;;;;10.31;100.00;101101.50;4968271;28;20415;-79
2022/04/17 08:37:16;;;;;;;0.40;0.40;;;;;;;10.25;100.00;101086.00;4985178;28;20502;-79
2022/04/17 08:39:41;;;;;;;0.40;0.40;;;;;;;10.35;100.00;101091.25;4988746;28;20048;-79
2022/04/17 08:42:07;;;;;;;0.40;0.40;;;;;;;10.44;100.00;101098.31;4966154;28;20068;-79
2022/04/17 08:44:33;;;;;;;0.47;0.47;;;;;;;10.49;100.00;101097.81;4985143;28;20038;-78
2022/04/17 08:46:59;;;;;;;0.40;0.40;;;;;;;10.57;100.00;101092.44;5000475;28;20149;-79
2022/04/17 08:49:25;;;;;;;0.40;0.40;;;;;;;10.63;100.00;101086.38;4962376;28;20432;-79
2022/04/17 08:51:53;;;;;;;0.40;0.40;;;;;;;10.76;100.00;101097.47;4986992;28;20041;-79
2022/04/17 08:54:19;;;;;;;0.40;0.40;;;;;;;10.85;100.00;101090.28;4963310;28;20516;-78
2022/04/17 08:56:51;;;;;;;0.40;0.40;;;;;;;10.93;100.00;101084.88;5016693;28;20180;-80
2022/04/17 08:59:17;;;;;;;0.50;0.50;;;;;;;10.99;100.00;101094.94;4962274;28;20026;-79
2022/04/17 09:01:42;;;;;;;0.43;0.43;;;;;;;11.05;100.00;101089.91;4992712;28;20040;-79
2022/04/17 09:04:08;;;;;;;0.40;0.40;;;;;;;11.10;100.00;101084.84;4959871;28;20225;-79
2022/04/17 09:06:35;;;;;;;0.40;0.40;;;;;;;11.17;100.00;101089.38;4986140;28;20038;-79
2022/04/17 09:09:03;;;;;;;0.40;0.40;;;;;;;11.21;100.00;101088.00;4968889;28;20387;-80
2022/04/17 09:11:29;;;;;;;0.40;0.40;;;;;;;11.20;100.00;101072.88;4987577;28;20033;-79
2022/04/17 09:14:01;;;;;;;0.40;0.40;;;;;;;11.17;100.00;101073.22;4953157;28;20477;-79
2022/04/17 09:16:39;;;;;;;0.40;0.40;;;;;;;11.13;100.00;101065.66;4976781;28;20096;-79
2022/04/17 09:19:16;;;;;;;0.50;0.50;;;;;;;11.23;100.00;101063.63;4964803;28;20376;-79
2022/04/17 09:21:42;;;;;;;0.50;0.50;;;;;;;11.32;100.00;101061.72;4984538;28;20096;-80
2022/04/17 09:24:25;;;;;;;0.40;0.40;;;;;;;11.43;100.00;101056.81;5003545;28;20034;-80
2022/04/17 09:26:56;;;;;;;0.50;0.50;;;;;;;11.54;100.00;101060.16;4985371;28;20045;-80
2022/04/17 09:29:27;;;;;;;0.50;0.50;;;;;;;11.64;100.00;101058.06;4959837;28;20036;-79
2022/04/17 09:32:00;;;;;;;0.40;0.40;;;;;;;11.77;100.00;101058.34;4974224;28;20553;-80
2022/04/17 09:34:28;;;;;;;0.40;0.40;;;;;;;11.84;100.00;101064.69;4972884;28;20034;-81
2022/04/17 09:37:00;;;;;;;0.43;0.43;;;;;;;11.98;100.00;101063.13;4991622;28;20042;-81
2022/04/17 09:39:34;;;;;;;0.40;0.40;;;;;;;12.07;100.00;101059.38;4968308;28;20019;-81
2022/04/17 09:42:01;;;;;;;;;;;;;;;12.21;100.00;101063.16;4960616;28;20038;-78
2022/04/17 09:44:47;;;;;;;0.40;0.40;;;;;;;12.27;100.00;101048.97;4985470;28;19926;-80
2022/04/17 09:47:20;;;;;;;0.40;0.40;;;;;;;12.30;100.00;101048.63;4990799;28;20034;-78
2022/04/17 09:49:56;;;;;;;0.40;0.40;;;;;;;12.37;100.00;101042.50;4986867;28;20026;-79
2022/04/17 09:52:23;;;;;;;0.40;0.40;;;;;;;12.39;100.00;101029.69;4990657;28;20037;-79
2022/04/17 09:54:49;;;;;;;0.40;0.40;;;;;;;12.48;100.00;101020.50;5004786;28;20034;-79
2022/04/17 09:57:39;;;;;;;0.50;0.50;;;;;;;12.54;100.00;101006.25;4998940;28;20038;-80
2022/04/17 10:00:12;;;;;;;0.50;0.50;;;;;;;12.58;100.00;100998.66;4951916;28;20042;-79
2022/04/17 10:02:39;;;;;;;0.50;0.50;;;;;;;12.56;100.00;100977.25;4981826;28;20586;-79
2022/04/17 10:05:07;;;;;;;0.50;0.50;;;;;;;12.56;100.00;100976.44;5009125;28;20499;-79
2022/04/17 10:07:32;;;;;;;0.40;0.40;;;;;;;12.57;100.00;100976.25;4994624;28;20038;-79
2022/04/17 10:09:58;;;;;;;0.40;0.40;;;;;;;12.59;100.00;100979.59;5008449;28;20083;-79
2022/04/17 10:12:27;;;;;;;0.50;0.50;;;;;;;12.67;100.00;100968.72;4993758;28;20034;-79
2022/04/17 10:14:53;;;;;;;0.47;0.47;;;;;;;12.65;100.00;100962.69;4977145;28;20045;-79
2022/04/17 10:17:22;;;;;;;0.50;0.50;;;;;;;12.77;100.00;100953.09;5011301;28;20030;-79
2022/04/17 10:19:51;;;;;;;0.40;0.40;;;;;;;12.66;100.00;100940.06;4989366;28;20045;-80
2022/04/17 10:22:21;;;;;;;0.50;0.50;;;;;;;12.86;100.00;100958.41;4978135;28;20042;-79
2022/04/17 10:24:54;;;;;;;0.40;0.40;;;;;;;12.83;100.00;100947.97;5009951;28;20593;-78
2022/04/17 10:27:43;;;;;;;0.50;0.50;;;;;;;12.66;100.00;100929.28;4975810;28;20034;-80
2022/04/17 10:30:18;;;;;;;0.43;0.43;;;;;;;12.83;100.00;100942.56;4989930;28;20041;-79
2022/04/17 10:33:14;;;;;;;0.50;0.50;;;;;;;12.94;100.00;100950.22;4976291;28;20030;-79
2022/04/17 10:35:45;;;;;;;0.40;0.40;;;;;;;12.92;100.00;100939.59;5009015;28;20026;-80
2022/04/17 10:38:35;;;;;;;0.50;0.50;;;;;;;12.82;100.00;100939.03;4998323;28;20061;-79
2022/04/17 10:41:08;;;;;;;0.40;0.40;;;;;;;12.56;100.00;100928.69;5009646;28;20038;-79
2022/04/17 10:44:05;;;;;;;0.40;0.40;;;;;;;12.44;100.00;100928.34;4962568;28;21480;-79
2022/04/17 10:46:53;;;;;;;0.50;0.50;;;;;;;12.60;100.00;100942.69;4978296;28;21064;-79
2022/04/17 10:49:29;;;;;;;0.50;0.50;;;;;;;12.61;100.00;100958.66;5008007;28;20042;-79
2022/04/17 10:52:02;;;;;;;0.50;0.50;;;;;;;12.69;100.00;100955.88;4965992;28;20073;-79
2022/04/17 10:54:48;;;;;;;0.50;0.50;;;;;;;12.77;100.00;100955.78;5008458;28;20125;-80
2022/04/17 10:57:16;;;;;;;0.40;0.40;;;;;;;12.70;100.00;100952.19;4976181;28;20117;-80
2022/04/17 10:59:45;;;;;;;0.50;0.50;;;;;;;12.62;100.00;100933.38;4998703;28;20041;-79
2022/04/17 11:02:17;;;;;;;0.50;0.50;;;;;;;12.62;100.00;100937.91;5008375;28;20551;-79
2022/04/17 11:04:53;;;;;;;0.40;0.40;;;;;;;12.59;100.00;100927.50;4980491;28;20610;-81
2022/04/17 11:07:21;;;;;;;0.50;0.50;;;;;;;12.51;100.00;100933.81;4970754;28;20038;-80
2022/04/17 11:09:47;;;;;;;0.40;0.40;;;;;;;12.47;100.00;100925.25;4977682;28;20513;-80
2022/04/17 11:12:18;;;;;;;0.40;0.40;;;;;;;12.44;100.00;100924.81;5004474;28;20037;-79
2022/04/17 11:14:55;;;;;;;0.40;0.40;;;;;;;12.53;100.00;100923.69;4991076;28;20534;-80
2022/04/17 11:17:24;;;;;;;0.50;0.50;;;;;;;12.76;100.00;100924.44;4987419;28;20480;-80
2022/04/17 11:19:56;;;;;;;0.50;0.50;;;;;;;13.00;100.00;100916.25;4993012;28;20080;-79
2022/04/17 11:22:27;;;;;;;0.40;0.40;;;;;;;13.21;100.00;100902.81;5006048;28;20036;-79
2022/04/17 11:24:55;;;;;;;0.50;0.50;;;;;;;13.53;100.00;100884.50;5006002;28;20116;-79
2022/04/17 11:27:46;;;;;;;0.50;0.50;;;;;;;13.92;100.00;100904.81;5002850;28;20503;-79
2022/04/17 11:30:17;;;;;;;0.50;0.50;;;;;;;14.04;100.00;100905.97;4971356;28;20045;-79
2022/04/17 11:32:43;;;;;;;0.40;0.40;;;;;;;14.01;100.00;100904.47;4976947;28;20038;-80
2022/04/17 11:35:14;;;;;;;0.50;0.50;;;;;;;14.18;100.00;100896.09;4992418;28;20133;-79
2022/04/17 11:37:42;;;;;;;0.50;0.50;;;;;;;14.53;100.00;100888.91;4966746;28;20711;-79
2022/04/17 11:40:15;;;;;;;0.50;0.50;;;;;;;15.08;100.00;100886.22;4998169;28;20038;-78